createdAt,value
2023-01-25T00:02:57.400Z,15.05
2023-01-25T00:08:01.730Z,19.00
2023-01-25T00:13:07.592Z,53.45
2023-01-25T00:23:16.146Z,47.90
2023-01-25T00:28:22.897Z,29.08
2023-01-25T00:38:45.192Z,24.05
2023-01-25T00:43:53.894Z,24.10
2023-01-25T00:48:58.711Z,22.30
2023-01-25T00:54:03.255Z,19.42
2023-01-25T00:59:09.660Z,21.45
2023-01-25T01:04:15.635Z,18.38
2023-01-25T01:09:22.283Z,32.58
2023-01-25T01:14:32.490Z,33.72
2023-01-25T01:19:40.162Z,51.90
2023-01-25T01:24:45.282Z,21.05
2023-01-25T01:29:51.518Z,20.13
2023-01-25T01:34:57.069Z,28.98
2023-01-25T01:40:01.913Z,23.05
2023-01-25T01:45:39.792Z,16.10
2023-01-25T01:50:46.556Z,24.33
2023-01-25T01:55:52.566Z,21.33
2023-01-25T02:00:57.731Z,31.98
2023-01-25T02:06:09.076Z,14.13
2023-01-25T02:11:14.273Z,16.40
2023-01-25T02:16:24.172Z,17.73
2023-01-25T02:21:39.418Z,15.32
2023-01-25T02:26:46.008Z,28.27
2023-01-25T02:31:52.834Z,18.20
2023-01-25T02:36:57.743Z,15.50
2023-01-25T02:42:04.248Z,14.33
2023-01-25T02:47:09.042Z,15.20
2023-01-25T02:52:13.778Z,17.10
2023-01-25T02:57:21.711Z,16.55
2023-01-25T03:02:28.411Z,18.63
2023-01-25T03:07:35.002Z,16.15
2023-01-25T03:12:43.088Z,15.95
2023-01-25T03:17:48.182Z,18.08
2023-01-25T03:22:52.992Z,15.40
2023-01-25T03:27:59.633Z,19.55
2023-01-25T03:33:04.768Z,19.15
2023-01-25T03:38:10.920Z,18.08
2023-01-25T03:43:17.551Z,16.55
2023-01-25T03:48:28.863Z,15.23
2023-01-25T03:53:34.054Z,16.15
2023-01-25T03:58:49.347Z,15.60
2023-01-25T04:03:54.965Z,17.30
2023-01-25T04:08:59.697Z,17.33
2023-01-25T04:14:11.984Z,13.95
2023-01-25T04:19:25.402Z,15.88
2023-01-25T04:24:34.208Z,16.00
2023-01-25T04:29:41.893Z,13.45
2023-01-25T04:34:53.060Z,12.52
2023-01-25T04:40:00.618Z,13.32
2023-01-25T04:45:13.095Z,12.20
2023-01-25T04:50:18.873Z,13.38
2023-01-25T04:55:24.840Z,13.30
2023-01-25T05:00:33.305Z,14.13
2023-01-25T05:05:39.272Z,12.75
2023-01-25T05:10:49.100Z,12.60
2023-01-25T05:16:11.899Z,13.10
2023-01-25T05:21:32.850Z,12.73
2023-01-25T05:26:55.044Z,13.48
2023-01-25T05:32:01.647Z,13.70
2023-01-25T05:37:09.264Z,14.00
2023-01-25T05:42:19.880Z,16.52
2023-01-25T05:47:26.729Z,18.63
2023-01-25T05:52:33.009Z,17.60
2023-01-25T05:57:37.934Z,16.80
2023-01-25T06:02:44.229Z,13.93
2023-01-25T06:07:54.224Z,13.90
2023-01-25T06:13:02.044Z,16.67
2023-01-25T06:18:08.616Z,15.50
2023-01-25T06:23:36.316Z,16.25
2023-01-25T06:28:43.927Z,15.20
2023-01-25T06:33:53.023Z,13.32
2023-01-25T06:39:00.510Z,14.43
2023-01-25T06:44:05.353Z,14.30
2023-01-25T06:49:12.053Z,11.57
2023-01-25T06:54:16.498Z,10.68
2023-01-25T06:59:21.009Z,12.00
2023-01-25T07:04:26.897Z,14.25
2023-01-25T07:14:35.452Z,14.80
2023-01-25T07:19:41.304Z,12.60
2023-01-25T07:24:50.159Z,9.50
2023-01-25T07:29:55.118Z,10.50
2023-01-25T07:35:00.927Z,10.02
2023-01-25T07:40:06.303Z,12.43
2023-01-25T07:45:12.300Z,12.80
2023-01-25T07:50:18.811Z,11.23
2023-01-25T07:55:23.687Z,12.38
2023-01-25T08:00:28.564Z,11.20
2023-01-25T08:05:34.505Z,13.23
2023-01-25T08:10:40.497Z,11.82
2023-01-25T08:15:45.901Z,10.82
2023-01-25T08:20:52.107Z,6.88
2023-01-25T08:25:57.648Z,8.27
2023-01-25T08:31:09.557Z,8.57
2023-01-25T08:36:16.860Z,7.93
2023-01-25T08:41:21.471Z,7.65
2023-01-25T08:46:30.155Z,7.00
2023-01-25T08:51:37.517Z,7.32
2023-01-25T09:01:46.981Z,8.02
2023-01-25T09:06:52.781Z,19.42
2023-01-25T09:17:01.163Z,6.88
2023-01-25T09:22:07.029Z,6.80
2023-01-25T09:32:15.594Z,7.35
2023-01-25T09:37:31.238Z,7.72
2023-01-25T09:47:55.925Z,7.38
2023-01-25T09:53:33.076Z,8.95
2023-01-25T09:58:41.659Z,6.65
2023-01-25T10:03:54.145Z,7.32
2023-01-25T10:09:08.816Z,7.40
2023-01-25T10:14:16.707Z,6.75
2023-01-25T10:19:27.077Z,6.15
2023-01-25T10:25:04.780Z,7.00
2023-01-25T10:30:25.484Z,6.47
2023-01-25T10:35:39.248Z,6.60
2023-01-25T10:40:51.930Z,7.57
2023-01-25T10:45:57.840Z,7.82
2023-01-25T10:51:02.365Z,9.15
2023-01-25T10:56:19.465Z,8.23
2023-01-25T11:01:30.769Z,9.43
2023-01-25T11:06:37.919Z,7.85
2023-01-25T11:11:43.796Z,8.00
2023-01-25T11:16:50.288Z,6.78
2023-01-25T11:21:56.404Z,6.55
2023-01-25T11:27:15.784Z,7.20
2023-01-25T11:32:25.897Z,6.88
2023-01-25T11:37:49.950Z,6.88
2023-01-25T11:43:04.356Z,7.28
2023-01-25T11:48:26.420Z,6.93
2023-01-25T11:53:57.467Z,6.47
2023-01-25T11:59:18.183Z,6.28
2023-01-25T12:04:48.825Z,7.45
2023-01-25T12:10:05.577Z,6.32
2023-01-25T12:15:29.152Z,6.90
2023-01-25T12:20:44.258Z,7.75
2023-01-25T12:25:59.476Z,7.55
2023-01-25T12:31:10.944Z,5.85
2023-01-25T12:36:23.008Z,5.45
2023-01-25T12:41:40.383Z,7.13
2023-01-25T12:46:49.956Z,6.78
2023-01-25T12:52:00.572Z,5.70
2023-01-25T12:57:13.192Z,6.90
2023-01-25T13:02:47.121Z,7.20
2023-01-25T13:08:03.635Z,8.07
2023-01-25T13:18:41.853Z,9.35
2023-01-25T13:23:48.682Z,9.13
2023-01-25T13:28:54.495Z,8.52
2023-01-25T13:34:00.341Z,7.78
2023-01-25T13:39:45.399Z,8.07
2023-01-25T13:44:52.059Z,8.40
2023-01-25T13:50:02.217Z,8.52
2023-01-25T13:55:19.296Z,8.27
2023-01-25T14:00:24.394Z,7.93
2023-01-25T14:05:28.828Z,8.13
2023-01-25T14:10:34.607Z,9.75
2023-01-25T14:15:39.139Z,9.10
2023-01-25T14:20:44.583Z,8.63
2023-01-25T14:25:50.530Z,8.43
2023-01-25T14:36:16.362Z,11.10
2023-01-25T14:41:34.041Z,10.27
2023-01-25T14:46:39.983Z,9.90
2023-01-25T14:51:46.946Z,11.55
2023-01-25T14:56:55.168Z,12.27
2023-01-25T15:02:01.988Z,11.73
2023-01-25T15:07:17.738Z,16.30
2023-01-25T15:17:48.701Z,13.43
2023-01-25T15:22:53.005Z,14.40
2023-01-25T15:27:58.790Z,13.80
2023-01-25T15:38:10.971Z,12.05
2023-01-25T15:43:18.665Z,14.80
2023-01-25T15:48:29.492Z,11.00
2023-01-25T15:53:33.852Z,8.90
2023-01-25T15:58:42.335Z,9.90
2023-01-25T16:03:46.861Z,8.93
2023-01-25T16:08:51.206Z,8.70
2023-01-25T16:13:58.029Z,10.13
2023-01-25T16:19:02.488Z,9.40
2023-01-25T16:24:07.166Z,9.57
2023-01-25T16:29:13.921Z,11.75
2023-01-25T16:34:18.433Z,12.32
2023-01-25T16:39:25.424Z,9.65
2023-01-25T16:44:32.546Z,12.30
2023-01-25T16:49:37.024Z,11.02
2023-01-25T16:54:41.451Z,9.43
2023-01-25T16:59:47.414Z,6.90
2023-01-25T17:04:51.917Z,6.65
2023-01-25T17:09:56.505Z,7.78
2023-01-25T17:15:02.188Z,4.70
2023-01-25T17:25:11.172Z,5.43
2023-01-25T17:30:18.609Z,4.72
2023-01-25T17:35:22.987Z,4.95
2023-01-25T17:40:27.535Z,6.07
2023-01-25T17:45:38.605Z,4.47
2023-01-25T17:50:43.199Z,5.72
2023-01-25T17:55:47.658Z,6.80
2023-01-25T18:00:59.363Z,4.85
2023-01-25T18:06:10.214Z,8.02
2023-01-25T18:11:17.449Z,5.97
2023-01-25T18:16:24.594Z,6.18
2023-01-25T18:21:31.775Z,6.75
2023-01-25T18:26:38.187Z,7.82
2023-01-25T18:31:45.593Z,6.43
2023-01-25T18:36:51.250Z,6.28
2023-01-25T18:41:56.105Z,6.68
2023-01-25T18:47:01.989Z,5.25
2023-01-25T18:52:11.684Z,6.28
2023-01-25T18:57:17.097Z,5.28
2023-01-25T19:02:23.679Z,6.17
2023-01-25T19:07:28.283Z,7.38
2023-01-25T19:12:32.622Z,6.45
2023-01-25T19:17:38.525Z,5.80
2023-01-25T19:27:47.204Z,5.65
2023-01-25T19:32:53.188Z,7.65
2023-01-25T19:37:58.157Z,5.55
2023-01-25T19:43:02.702Z,6.57
2023-01-25T19:48:09.137Z,6.75
2023-01-25T19:53:13.816Z,6.38
2023-01-25T19:58:18.207Z,6.30
2023-01-25T20:03:27.623Z,7.43
2023-01-25T20:08:43.465Z,10.07
2023-01-25T20:13:51.090Z,7.57
2023-01-25T20:18:58.024Z,7.10
2023-01-25T20:24:06.940Z,5.05
2023-01-25T20:29:13.257Z,5.22
2023-01-25T20:34:21.975Z,4.68
2023-01-25T20:39:26.426Z,6.38
2023-01-25T20:44:30.738Z,5.18
2023-01-25T20:49:38.340Z,9.05
2023-01-25T20:54:43.101Z,8.10
2023-01-25T20:59:47.527Z,7.35
2023-01-25T21:04:53.411Z,6.82
2023-01-25T21:09:57.864Z,7.88
2023-01-25T21:15:02.414Z,6.68
2023-01-25T21:20:09.655Z,5.18
2023-01-25T21:25:13.973Z,4.50
2023-01-25T21:30:19.058Z,4.05
2023-01-25T21:35:24.788Z,4.57
2023-01-25T21:45:52.845Z,6.22
2023-01-25T21:51:21.522Z,6.07
2023-01-25T21:56:25.912Z,6.00
2023-01-25T22:01:35.172Z,6.43
2023-01-25T22:06:41.279Z,5.60
2023-01-25T22:11:46.862Z,5.97
2023-01-25T22:16:51.313Z,6.60
2023-01-25T22:21:57.283Z,5.72
2023-01-25T22:27:28.465Z,6.43
2023-01-25T22:32:32.786Z,4.20
2023-01-25T22:37:39.318Z,4.53
2023-01-25T22:42:43.795Z,4.50
2023-01-25T22:47:48.351Z,5.13
2023-01-25T22:52:54.181Z,4.25
2023-01-25T23:03:02.664Z,4.63
2023-01-25T23:08:11.354Z,4.32
2023-01-25T23:18:37.331Z,3.92
2023-01-25T23:23:43.351Z,5.15
2023-01-25T23:28:53.120Z,5.55
2023-01-25T23:34:00.159Z,5.28
2023-01-25T23:39:06.956Z,4.28
2023-01-25T23:44:11.459Z,5.10
2023-01-25T23:49:15.791Z,5.28
2023-01-25T23:54:21.814Z,4.75
